sensor_id;sensor_type;location;lat;lon;timestamp;P1;durP1;ratioP1;P2;durP2;ratioP2
52786;SDS011;38661;53.152;5.846;2023-06-26T00:00:52;13.80;;;11.85;;
52786;SDS011;38661;53.152;5.846;2023-06-26T00:03:18;13.43;;;12.13;;
52786;SDS011;38661;53.152;5.846;2023-06-26T00:05:44;18.17;;;13.98;;
52786;SDS011;38661;53.152;5.846;2023-06-26T00:08:09;15.10;;;13.30;;
52786;SDS011;38661;53.152;5.846;2023-06-26T00:10:35;15.20;;;13.70;;
52786;SDS011;38661;53.152;5.846;2023-06-26T00:13:00;14.32;;;12.88;;
52786;SDS011;38661;53.152;5.846;2023-06-26T00:15:27;14.43;;;13.02;;
52786;SDS011;38661;53.152;5.846;2023-06-26T00:17:56;15.52;;;13.95;;
52786;SDS011;38661;53.152;5.846;2023-06-26T00:20:23;14.65;;;13.35;;
52786;SDS011;38661;53.152;5.846;2023-06-26T00:22:50;15.05;;;13.50;;
52786;SDS011;38661;53.152;5.846;2023-06-26T00:25:15;15.80;;;14.32;;
52786;SDS011;38661;53.152;5.846;2023-06-26T00:27:41;16.88;;;15.25;;
52786;SDS011;38661;53.152;5.846;2023-06-26T00:30:07;15.60;;;13.43;;
52786;SDS011;38661;53.152;5.846;2023-06-26T00:32:33;14.82;;;13.38;;
52786;SDS011;38661;53.152;5.846;2023-06-26T00:34:59;15.07;;;13.68;;
52786;SDS011;38661;53.152;5.846;2023-06-26T00:37:24;15.50;;;14.02;;
52786;SDS011;38661;53.152;5.846;2023-06-26T00:39:50;15.05;;;13.50;;
52786;SDS011;38661;53.152;5.846;2023-06-26T00:42:15;15.27;;;13.88;;
52786;SDS011;38661;53.152;5.846;2023-06-26T00:44:41;14.50;;;13.20;;
52786;SDS011;38661;53.152;5.846;2023-06-26T00:47:07;16.30;;;14.65;;
52786;SDS011;38661;53.152;5.846;2023-06-26T00:49:33;14.43;;;13.13;;
52786;SDS011;38661;53.152;5.846;2023-06-26T00:51:59;16.27;;;14.48;;
52786;SDS011;38661;53.152;5.846;2023-06-26T00:54:25;16.70;;;15.10;;
52786;SDS011;38661;53.152;5.846;2023-06-26T00:56:51;14.48;;;13.07;;
52786;SDS011;38661;53.152;5.846;2023-06-26T00:59:16;16.10;;;14.45;;
52786;SDS011;38661;53.152;5.846;2023-06-26T01:01:42;16.73;;;13.95;;
52786;SDS011;38661;53.152;5.846;2023-06-26T01:04:08;15.75;;;14.27;;
52786;SDS011;38661;53.152;5.846;2023-06-26T01:06:43;15.30;;;13.88;;
52786;SDS011;38661;53.152;5.846;2023-06-26T01:09:20;14.60;;;13.15;;
52786;SDS011;38661;53.152;5.846;2023-06-26T01:11:47;13.07;;;11.88;;
52786;SDS011;38661;53.152;5.846;2023-06-26T01:14:13;14.65;;;13.10;;
52786;SDS011;38661;53.152;5.846;2023-06-26T01:16:39;16.48;;;14.88;;
52786;SDS011;38661;53.152;5.846;2023-06-26T01:19:09;15.57;;;14.18;;
52786;SDS011;38661;53.152;5.846;2023-06-26T01:21:40;15.30;;;13.80;;
52786;SDS011;38661;53.152;5.846;2023-06-26T01:24:16;15.98;;;14.48;;
52786;SDS011;38661;53.152;5.846;2023-06-26T01:26:46;13.35;;;12.13;;
52786;SDS011;38661;53.152;5.846;2023-06-26T01:29:14;17.23;;;15.63;;
52786;SDS011;38661;53.152;5.846;2023-06-26T01:31:42;17.67;;;15.45;;
52786;SDS011;38661;53.152;5.846;2023-06-26T01:34:09;15.50;;;14.10;;
52786;SDS011;38661;53.152;5.846;2023-06-26T01:36:35;16.10;;;14.48;;
52786;SDS011;38661;53.152;5.846;2023-06-26T01:39:02;14.68;;;13.25;;
52786;SDS011;38661;53.152;5.846;2023-06-26T01:41:28;16.48;;;14.82;;
52786;SDS011;38661;53.152;5.846;2023-06-26T01:51:55;15.88;;;14.25;;
52786;SDS011;38661;53.152;5.846;2023-06-26T01:54:47;15.07;;;13.68;;
52786;SDS011;38661;53.152;5.846;2023-06-26T01:57:19;15.70;;;14.30;;
52786;SDS011;38661;53.152;5.846;2023-06-26T01:59:47;16.60;;;15.10;;
52786;SDS011;38661;53.152;5.846;2023-06-26T02:02:14;16.73;;;14.85;;
52786;SDS011;38661;53.152;5.846;2023-06-26T02:04:40;16.65;;;15.00;;
52786;SDS011;38661;53.152;5.846;2023-06-26T02:07:06;15.32;;;13.93;;
52786;SDS011;38661;53.152;5.846;2023-06-26T02:09:34;16.63;;;15.02;;
52786;SDS011;38661;53.152;5.846;2023-06-26T02:12:00;16.55;;;15.00;;
52786;SDS011;38661;53.152;5.846;2023-06-26T02:14:25;15.80;;;14.43;;
52786;SDS011;38661;53.152;5.846;2023-06-26T02:16:51;20.70;;;16.38;;
52786;SDS011;38661;53.152;5.846;2023-06-26T02:19:17;17.20;;;15.60;;
52786;SDS011;38661;53.152;5.846;2023-06-26T02:21:47;17.17;;;15.48;;
52786;SDS011;38661;53.152;5.846;2023-06-26T02:24:15;17.35;;;15.65;;
52786;SDS011;38661;53.152;5.846;2023-06-26T02:26:41;17.00;;;15.45;;
52786;SDS011;38661;53.152;5.846;2023-06-26T02:29:07;15.48;;;13.75;;
52786;SDS011;38661;53.152;5.846;2023-06-26T02:31:32;15.23;;;13.80;;
52786;SDS011;38661;53.152;5.846;2023-06-26T02:33:58;14.75;;;13.35;;
52786;SDS011;38661;53.152;5.846;2023-06-26T02:36:24;15.55;;;13.88;;
52786;SDS011;38661;53.152;5.846;2023-06-26T02:38:49;18.08;;;16.45;;
52786;SDS011;38661;53.152;5.846;2023-06-26T02:41:15;18.30;;;14.57;;
52786;SDS011;38661;53.152;5.846;2023-06-26T02:43:41;14.55;;;13.05;;
52786;SDS011;38661;53.152;5.846;2023-06-26T02:46:06;13.55;;;12.10;;
52786;SDS011;38661;53.152;5.846;2023-06-26T02:48:32;12.00;;;10.80;;
52786;SDS011;38661;53.152;5.846;2023-06-26T02:50:58;13.20;;;11.55;;
52786;SDS011;38661;53.152;5.846;2023-06-26T02:53:24;15.32;;;11.98;;
52786;SDS011;38661;53.152;5.846;2023-06-26T02:55:49;11.65;;;10.45;;
52786;SDS011;38661;53.152;5.846;2023-06-26T02:58:15;13.27;;;10.45;;
52786;SDS011;38661;53.152;5.846;2023-06-26T03:00:41;14.18;;;11.15;;
52786;SDS011;38661;53.152;5.846;2023-06-26T03:03:08;16.70;;;10.52;;
52786;SDS011;38661;53.152;5.846;2023-06-26T03:05:34;12.90;;;10.80;;
52786;SDS011;38661;53.152;5.846;2023-06-26T03:08:00;13.23;;;11.82;;
52786;SDS011;38661;53.152;5.846;2023-06-26T03:10:27;15.57;;;12.25;;
52786;SDS011;38661;53.152;5.846;2023-06-26T03:12:53;15.02;;;12.18;;
52786;SDS011;38661;53.152;5.846;2023-06-26T03:15:18;14.88;;;12.60;;
52786;SDS011;38661;53.152;5.846;2023-06-26T03:17:44;14.77;;;12.65;;
52786;SDS011;38661;53.152;5.846;2023-06-26T03:20:10;17.48;;;13.38;;
52786;SDS011;38661;53.152;5.846;2023-06-26T03:22:36;19.00;;;15.23;;
52786;SDS011;38661;53.152;5.846;2023-06-26T03:25:02;21.70;;;14.90;;
52786;SDS011;38661;53.152;5.846;2023-06-26T03:27:28;22.17;;;15.38;;
52786;SDS011;38661;53.152;5.846;2023-06-26T03:29:54;18.02;;;14.63;;
52786;SDS011;38661;53.152;5.846;2023-06-26T03:32:19;17.80;;;14.38;;
52786;SDS011;38661;53.152;5.846;2023-06-26T03:34:45;16.63;;;14.52;;
52786;SDS011;38661;53.152;5.846;2023-06-26T03:37:11;19.80;;;15.50;;
52786;SDS011;38661;53.152;5.846;2023-06-26T03:39:37;18.00;;;12.52;;
52786;SDS011;38661;53.152;5.846;2023-06-26T03:42:02;23.33;;;14.35;;
52786;SDS011;38661;53.152;5.846;2023-06-26T03:44:28;17.17;;;13.20;;
52786;SDS011;38661;53.152;5.846;2023-06-26T03:46:54;20.90;;;15.52;;
52786;SDS011;38661;53.152;5.846;2023-06-26T03:49:19;19.83;;;14.75;;
52786;SDS011;38661;53.152;5.846;2023-06-26T03:51:45;27.00;;;15.35;;
52786;SDS011;38661;53.152;5.846;2023-06-26T03:54:11;28.13;;;16.50;;
52786;SDS011;38661;53.152;5.846;2023-06-26T03:56:37;26.25;;;15.77;;
52786;SDS011;38661;53.152;5.846;2023-06-26T03:59:03;27.20;;;15.85;;
52786;SDS011;38661;53.152;5.846;2023-06-26T04:01:28;23.45;;;17.88;;
52786;SDS011;38661;53.152;5.846;2023-06-26T04:03:54;24.58;;;15.52;;
52786;SDS011;38661;53.152;5.846;2023-06-26T04:06:20;23.50;;;15.93;;
52786;SDS011;38661;53.152;5.846;2023-06-26T04:08:45;28.77;;;17.33;;
52786;SDS011;38661;53.152;5.846;2023-06-26T04:11:11;22.92;;;16.13;;
52786;SDS011;38661;53.152;5.846;2023-06-26T04:13:37;22.20;;;16.38;;
52786;SDS011;38661;53.152;5.846;2023-06-26T04:16:03;22.23;;;14.02;;
52786;SDS011;38661;53.152;5.846;2023-06-26T04:18:29;21.92;;;14.93;;
52786;SDS011;38661;53.152;5.846;2023-06-26T04:21:13;23.45;;;14.80;;
52786;SDS011;38661;53.152;5.846;2023-06-26T04:26:05;18.15;;;12.18;;
52786;SDS011;38661;53.152;5.846;2023-06-26T04:28:32;20.48;;;12.88;;
52786;SDS011;38661;53.152;5.846;2023-06-26T04:30:58;22.33;;;10.05;;
52786;SDS011;38661;53.152;5.846;2023-06-26T04:33:25;17.85;;;10.07;;
52786;SDS011;38661;53.152;5.846;2023-06-26T04:35:51;15.43;;;9.23;;
52786;SDS011;38661;53.152;5.846;2023-06-26T04:38:18;23.30;;;9.48;;
52786;SDS011;38661;53.152;5.846;2023-06-26T04:40:44;15.20;;;7.97;;
52786;SDS011;38661;53.152;5.846;2023-06-26T04:43:10;9.68;;;6.65;;
52786;SDS011;38661;53.152;5.846;2023-06-26T04:45:36;14.52;;;7.25;;
52786;SDS011;38661;53.152;5.846;2023-06-26T04:48:02;12.68;;;7.55;;
52786;SDS011;38661;53.152;5.846;2023-06-26T04:50:28;13.85;;;6.72;;
52786;SDS011;38661;53.152;5.846;2023-06-26T04:52:55;11.70;;;6.32;;
52786;SDS011;38661;53.152;5.846;2023-06-26T04:55:23;14.18;;;6.32;;
52786;SDS011;38661;53.152;5.846;2023-06-26T04:57:49;13.20;;;6.05;;
52786;SDS011;38661;53.152;5.846;2023-06-26T05:00:15;14.25;;;5.72;;
52786;SDS011;38661;53.152;5.846;2023-06-26T05:02:41;9.73;;;5.20;;
52786;SDS011;38661;53.152;5.846;2023-06-26T05:05:07;14.90;;;5.90;;
52786;SDS011;38661;53.152;5.846;2023-06-26T05:07:33;13.88;;;5.57;;
52786;SDS011;38661;53.152;5.846;2023-06-26T05:09:58;11.27;;;5.25;;
52786;SDS011;38661;53.152;5.846;2023-06-26T05:12:24;13.98;;;4.88;;
52786;SDS011;38661;53.152;5.846;2023-06-26T05:14:50;13.55;;;5.43;;
52786;SDS011;38661;53.152;5.846;2023-06-26T05:17:15;16.67;;;5.18;;
52786;SDS011;38661;53.152;5.846;2023-06-26T05:19:41;13.75;;;5.00;;
52786;SDS011;38661;53.152;5.846;2023-06-26T05:22:07;13.82;;;4.93;;
52786;SDS011;38661;53.152;5.846;2023-06-26T05:24:35;13.13;;;4.75;;
52786;SDS011;38661;53.152;5.846;2023-06-26T05:27:01;17.40;;;4.88;;
52786;SDS011;38661;53.152;5.846;2023-06-26T05:29:27;12.88;;;4.32;;
52786;SDS011;38661;53.152;5.846;2023-06-26T05:31:55;13.63;;;4.97;;
52786;SDS011;38661;53.152;5.846;2023-06-26T05:34:25;13.75;;;4.70;;
52786;SDS011;38661;53.152;5.846;2023-06-26T05:36:57;17.45;;;4.80;;
52786;SDS011;38661;53.152;5.846;2023-06-26T05:39:24;15.88;;;5.38;;
52786;SDS011;38661;53.152;5.846;2023-06-26T05:41:50;11.07;;;3.97;;
52786;SDS011;38661;53.152;5.846;2023-06-26T05:44:16;10.82;;;3.65;;
52786;SDS011;38661;53.152;5.846;2023-06-26T05:46:42;8.52;;;3.67;;
52786;SDS011;38661;53.152;5.846;2023-06-26T05:49:08;17.92;;;5.10;;
52786;SDS011;38661;53.152;5.846;2023-06-26T05:51:34;7.18;;;3.97;;
52786;SDS011;38661;53.152;5.846;2023-06-26T05:54:00;11.65;;;4.57;;
52786;SDS011;38661;53.152;5.846;2023-06-26T05:56:26;9.50;;;3.55;;
52786;SDS011;38661;53.152;5.846;2023-06-26T05:58:53;10.82;;;4.47;;
52786;SDS011;38661;53.152;5.846;2023-06-26T06:01:19;8.18;;;3.30;;
52786;SDS011;38661;53.152;5.846;2023-06-26T06:03:45;12.75;;;4.07;;
52786;SDS011;38661;53.152;5.846;2023-06-26T06:06:11;9.48;;;3.22;;
52786;SDS011;38661;53.152;5.846;2023-06-26T06:08:37;11.32;;;3.83;;
52786;SDS011;38661;53.152;5.846;2023-06-26T06:11:03;12.10;;;3.72;;
52786;SDS011;38661;53.152;5.846;2023-06-26T06:13:28;8.25;;;3.08;;
52786;SDS011;38661;53.152;5.846;2023-06-26T06:15:54;10.60;;;3.17;;
52786;SDS011;38661;53.152;5.846;2023-06-26T06:18:21;7.88;;;3.50;;
52786;SDS011;38661;53.152;5.846;2023-06-26T06:20:47;7.15;;;2.60;;
52786;SDS011;38661;53.152;5.846;2023-06-26T06:23:13;11.25;;;3.30;;
52786;SDS011;38661;53.152;5.846;2023-06-26T06:25:38;10.65;;;3.50;;
52786;SDS011;38661;53.152;5.846;2023-06-26T06:28:04;9.38;;;3.85;;
52786;SDS011;38661;53.152;5.846;2023-06-26T06:30:30;9.40;;;3.65;;
52786;SDS011;38661;53.152;5.846;2023-06-26T06:32:57;11.90;;;3.40;;
52786;SDS011;38661;53.152;5.846;2023-06-26T06:35:23;13.68;;;2.72;;
52786;SDS011;38661;53.152;5.846;2023-06-26T06:37:49;7.20;;;2.85;;
52786;SDS011;38661;53.152;5.846;2023-06-26T06:40:15;11.57;;;2.60;;
52786;SDS011;38661;53.152;5.846;2023-06-26T06:42:41;7.22;;;2.20;;
52786;SDS011;38661;53.152;5.846;2023-06-26T06:45:07;10.10;;;2.83;;
52786;SDS011;38661;53.152;5.846;2023-06-26T06:47:33;5.70;;;1.60;;
52786;SDS011;38661;53.152;5.846;2023-06-26T06:49:59;8.15;;;2.33;;
52786;SDS011;38661;53.152;5.846;2023-06-26T06:52:34;4.88;;;2.17;;
52786;SDS011;38661;53.152;5.846;2023-06-26T06:55:00;5.30;;;2.00;;
52786;SDS011;38661;53.152;5.846;2023-06-26T06:57:30;4.53;;;2.05;;
52786;SDS011;38661;53.152;5.846;2023-06-26T06:59:56;5.82;;;2.47;;
52786;SDS011;38661;53.152;5.846;2023-06-26T07:02:22;5.85;;;2.25;;
52786;SDS011;38661;53.152;5.846;2023-06-26T07:04:47;8.00;;;2.45;;
52786;SDS011;38661;53.152;5.846;2023-06-26T07:07:13;8.25;;;2.30;;
52786;SDS011;38661;53.152;5.846;2023-06-26T07:09:42;5.43;;;1.95;;
52786;SDS011;38661;53.152;5.846;2023-06-26T07:12:08;5.28;;;2.33;;
52786;SDS011;38661;53.152;5.846;2023-06-26T07:14:34;4.88;;;2.28;;
52786;SDS011;38661;53.152;5.846;2023-06-26T07:17:00;6.55;;;2.25;;
52786;SDS011;38661;53.152;5.846;2023-06-26T07:19:25;3.60;;;2.10;;
52786;SDS011;38661;53.152;5.846;2023-06-26T07:21:51;5.28;;;2.67;;
52786;SDS011;38661;53.152;5.846;2023-06-26T07:24:17;6.50;;;2.03;;
52786;SDS011;38661;53.152;5.846;2023-06-26T07:26:42;4.40;;;2.00;;
52786;SDS011;38661;53.152;5.846;2023-06-26T07:29:08;7.40;;;2.53;;
52786;SDS011;38661;53.152;5.846;2023-06-26T07:31:34;4.13;;;3.22;;
52786;SDS011;38661;53.152;5.846;2023-06-26T07:34:00;5.22;;;2.35;;
52786;SDS011;38661;53.152;5.846;2023-06-26T07:36:25;5.75;;;2.33;;
52786;SDS011;38661;53.152;5.846;2023-06-26T07:38:51;7.05;;;2.45;;
52786;SDS011;38661;53.152;5.846;2023-06-26T07:41:17;4.80;;;2.40;;
52786;SDS011;38661;53.152;5.846;2023-06-26T07:43:42;8.57;;;2.78;;
52786;SDS011;38661;53.152;5.846;2023-06-26T07:46:08;3.75;;;2.10;;
52786;SDS011;38661;53.152;5.846;2023-06-26T07:48:34;9.50;;;3.45;;
52786;SDS011;38661;53.152;5.846;2023-06-26T07:50:59;4.80;;;2.75;;
52786;SDS011;38661;53.152;5.846;2023-06-26T07:53:25;6.38;;;2.47;;
52786;SDS011;38661;53.152;5.846;2023-06-26T07:55:50;7.93;;;2.53;;
52786;SDS011;38661;53.152;5.846;2023-06-26T07:58:17;4.22;;;2.33;;
52786;SDS011;38661;53.152;5.846;2023-06-26T08:00:43;3.67;;;2.40;;
52786;SDS011;38661;53.152;5.846;2023-06-26T08:03:08;6.32;;;2.47;;
52786;SDS011;38661;53.152;5.846;2023-06-26T08:05:34;5.45;;;2.47;;
52786;SDS011;38661;53.152;5.846;2023-06-26T08:08:00;7.45;;;2.55;;
52786;SDS011;38661;53.152;5.846;2023-06-26T08:10:27;5.05;;;2.25;;
52786;SDS011;38661;53.152;5.846;2023-06-26T08:12:53;5.90;;;2.20;;
52786;SDS011;38661;53.152;5.846;2023-06-26T08:15:20;4.93;;;2.00;;
52786;SDS011;38661;53.152;5.846;2023-06-26T08:17:46;6.05;;;2.40;;
52786;SDS011;38661;53.152;5.846;2023-06-26T08:20:12;6.93;;;2.80;;
52786;SDS011;38661;53.152;5.846;2023-06-26T08:22:39;6.63;;;2.53;;
52786;SDS011;38661;53.152;5.846;2023-06-26T08:25:05;6.80;;;2.80;;
52786;SDS011;38661;53.152;5.846;2023-06-26T08:27:31;8.10;;;3.10;;
52786;SDS011;38661;53.152;5.846;2023-06-26T08:29:57;6.75;;;2.60;;
52786;SDS011;38661;53.152;5.846;2023-06-26T08:32:23;5.40;;;2.90;;
52786;SDS011;38661;53.152;5.846;2023-06-26T08:34:50;4.60;;;2.80;;
52786;SDS011;38661;53.152;5.846;2023-06-26T08:37:16;6.22;;;2.80;;
52786;SDS011;38661;53.152;5.846;2023-06-26T08:39:41;7.72;;;3.53;;
52786;SDS011;38661;53.152;5.846;2023-06-26T08:42:07;7.28;;;3.53;;
52786;SDS011;38661;53.152;5.846;2023-06-26T08:44:33;6.43;;;3.30;;
52786;SDS011;38661;53.152;5.846;2023-06-26T08:46:59;9.45;;;4.35;;
52786;SDS011;38661;53.152;5.846;2023-06-26T08:49:45;9.30;;;3.80;;
52786;SDS011;38661;53.152;5.846;2023-06-26T08:52:22;10.43;;;4.22;;
52786;SDS011;38661;53.152;5.846;2023-06-26T08:54:52;8.47;;;3.93;;
52786;SDS011;38661;53.152;5.846;2023-06-26T08:57:21;8.68;;;4.10;;
52786;SDS011;38661;53.152;5.846;2023-06-26T08:59:48;7.85;;;4.10;;
52786;SDS011;38661;53.152;5.846;2023-06-26T09:02:14;9.27;;;4.05;;
52786;SDS011;38661;53.152;5.846;2023-06-26T09:04:40;8.35;;;3.90;;
52786;SDS011;38661;53.152;5.846;2023-06-26T09:07:06;4.68;;;3.60;;
52786;SDS011;38661;53.152;5.846;2023-06-26T09:09:32;7.32;;;3.38;;
52786;SDS011;38661;53.152;5.846;2023-06-26T09:11:58;8.43;;;3.97;;
52786;SDS011;38661;53.152;5.846;2023-06-26T09:14:24;6.57;;;3.58;;
52786;SDS011;38661;53.152;5.846;2023-06-26T09:16:50;9.32;;;3.83;;
52786;SDS011;38661;53.152;5.846;2023-06-26T09:19:15;6.75;;;4.30;;
52786;SDS011;38661;53.152;5.846;2023-06-26T09:21:42;6.55;;;4.47;;
52786;SDS011;38661;53.152;5.846;2023-06-26T09:24:08;6.72;;;4.45;;
52786;SDS011;38661;53.152;5.846;2023-06-26T09:26:38;7.78;;;4.10;;
52786;SDS011;38661;53.152;5.846;2023-06-26T09:29:06;7.82;;;4.55;;
52786;SDS011;38661;53.152;5.846;2023-06-26T09:31:33;9.75;;;5.47;;
52786;SDS011;38661;53.152;5.846;2023-06-26T09:34:01;6.70;;;4.85;;
52786;SDS011;38661;53.152;5.846;2023-06-26T09:36:28;8.38;;;5.47;;
52786;SDS011;38661;53.152;5.846;2023-06-26T09:39:01;6.82;;;4.63;;
52786;SDS011;38661;53.152;5.846;2023-06-26T09:41:28;10.13;;;4.57;;
52786;SDS011;38661;53.152;5.846;2023-06-26T09:43:53;5.30;;;3.97;;
52786;SDS011;38661;53.152;5.846;2023-06-26T09:48:48;5.47;;;3.25;;
52786;SDS011;38661;53.152;5.846;2023-06-26T09:51:16;10.05;;;3.45;;
52786;SDS011;38661;53.152;5.846;2023-06-26T09:53:42;9.30;;;3.83;;
52786;SDS011;38661;53.152;5.846;2023-06-26T09:56:14;7.32;;;3.30;;
52786;SDS011;38661;53.152;5.846;2023-06-26T09:58:44;7.60;;;2.97;;
52786;SDS011;38661;53.152;5.846;2023-06-26T10:01:10;6.30;;;3.42;;
52786;SDS011;38661;53.152;5.846;2023-06-26T10:03:36;8.07;;;2.85;;
52786;SDS011;38661;53.152;5.846;2023-06-26T10:06:02;9.48;;;3.08;;
52786;SDS011;38661;53.152;5.846;2023-06-26T10:08:28;8.68;;;2.97;;
52786;SDS011;38661;53.152;5.846;2023-06-26T10:10:55;6.65;;;2.92;;
52786;SDS011;38661;53.152;5.846;2023-06-26T10:13:24;8.20;;;2.92;;
52786;SDS011;38661;53.152;5.846;2023-06-26T10:15:56;7.30;;;2.67;;
52786;SDS011;38661;53.152;5.846;2023-06-26T10:18:24;8.02;;;2.80;;
52786;SDS011;38661;53.152;5.846;2023-06-26T10:20:53;6.90;;;2.50;;
52786;SDS011;38661;53.152;5.846;2023-06-26T10:23:21;5.60;;;2.35;;
52786;SDS011;38661;53.152;5.846;2023-06-26T10:25:51;7.20;;;2.25;;
52786;SDS011;38661;53.152;5.846;2023-06-26T10:28:20;8.50;;;2.53;;
52786;SDS011;38661;53.152;5.846;2023-06-26T10:30:48;10.20;;;3.50;;
52786;SDS011;38661;53.152;5.846;2023-06-26T10:33:16;7.38;;;2.38;;
52786;SDS011;38661;53.152;5.846;2023-06-26T10:35:42;6.03;;;2.45;;
52786;SDS011;38661;53.152;5.846;2023-06-26T10:38:09;4.40;;;2.40;;
52786;SDS011;38661;53.152;5.846;2023-06-26T10:40:42;3.20;;;1.70;;
52786;SDS011;38661;53.152;5.846;2023-06-26T10:43:13;6.75;;;2.00;;
52786;SDS011;38661;53.152;5.846;2023-06-26T10:45:44;6.88;;;2.15;;
52786;SDS011;38661;53.152;5.846;2023-06-26T10:48:13;7.50;;;2.50;;
52786;SDS011;38661;53.152;5.846;2023-06-26T10:50:40;8.48;;;2.20;;
52786;SDS011;38661;53.152;5.846;2023-06-26T10:53:10;7.78;;;2.28;;
52786;SDS011;38661;53.152;5.846;2023-06-26T10:55:36;3.92;;;1.40;;
52786;SDS011;38661;53.152;5.846;2023-06-26T10:58:02;5.82;;;1.73;;
52786;SDS011;38661;53.152;5.846;2023-06-26T11:00:28;4.95;;;1.90;;
52786;SDS011;38661;53.152;5.846;2023-06-26T11:02:54;7.88;;;2.22;;
52786;SDS011;38661;53.152;5.846;2023-06-26T11:05:23;6.40;;;2.15;;
52786;SDS011;38661;53.152;5.846;2023-06-26T11:08:24;8.60;;;1.88;;
52786;SDS011;38661;53.152;5.846;2023-06-26T11:10:49;4.05;;;1.90;;
52786;SDS011;38661;53.152;5.846;2023-06-26T11:13:20;3.85;;;1.95;;
52786;SDS011;38661;53.152;5.846;2023-06-26T11:15:46;7.03;;;2.00;;
52786;SDS011;38661;53.152;5.846;2023-06-26T11:18:12;11.05;;;2.47;;
52786;SDS011;38661;53.152;5.846;2023-06-26T11:20:39;8.77;;;2.65;;
52786;SDS011;38661;53.152;5.846;2023-06-26T11:23:05;5.43;;;2.28;;
52786;SDS011;38661;53.152;5.846;2023-06-26T11:25:37;8.73;;;2.80;;
52786;SDS011;38661;53.152;5.846;2023-06-26T11:28:04;9.05;;;2.30;;
52786;SDS011;38661;53.152;5.846;2023-06-26T11:30:30;5.80;;;2.40;;
52786;SDS011;38661;53.152;5.846;2023-06-26T11:33:06;11.07;;;2.67;;
52786;SDS011;38661;53.152;5.846;2023-06-26T11:35:33;7.68;;;2.45;;
52786;SDS011;38661;53.152;5.846;2023-06-26T11:37:59;7.80;;;2.92;;
52786;SDS011;38661;53.152;5.846;2023-06-26T11:40:29;6.05;;;2.08;;
52786;SDS011;38661;53.152;5.846;2023-06-26T11:42:59;8.32;;;2.25;;
52786;SDS011;38661;53.152;5.846;2023-06-26T11:45:30;4.72;;;2.17;;
52786;SDS011;38661;53.152;5.846;2023-06-26T11:47:57;5.50;;;2.30;;
52786;SDS011;38661;53.152;5.846;2023-06-26T11:50:23;8.77;;;2.58;;
52786;SDS011;38661;53.152;5.846;2023-06-26T11:52:53;7.15;;;2.22;;
52786;SDS011;38661;53.152;5.846;2023-06-26T11:55:23;8.85;;;2.08;;
52786;SDS011;38661;53.152;5.846;2023-06-26T11:57:50;10.13;;;2.47;;
52786;SDS011;38661;53.152;5.846;2023-06-26T12:00:18;10.13;;;2.53;;
52786;SDS011;38661;53.152;5.846;2023-06-26T12:02:44;5.80;;;2.30;;
52786;SDS011;38661;53.152;5.846;2023-06-26T12:05:11;7.80;;;2.85;;
52786;SDS011;38661;53.152;5.846;2023-06-26T12:07:43;8.50;;;2.65;;
52786;SDS011;38661;53.152;5.846;2023-06-26T12:10:11;9.73;;;3.15;;
52786;SDS011;38661;53.152;5.846;2023-06-26T12:12:37;7.68;;;2.20;;
52786;SDS011;38661;53.152;5.846;2023-06-26T12:15:03;10.43;;;2.75;;
52786;SDS011;38661;53.152;5.846;2023-06-26T12:17:31;12.57;;;2.60;;
52786;SDS011;38661;53.152;5.846;2023-06-26T12:19:57;11.40;;;2.70;;
52786;SDS011;38661;53.152;5.846;2023-06-26T12:22:23;6.43;;;2.35;;
52786;SDS011;38661;53.152;5.846;2023-06-26T12:24:49;6.93;;;3.03;;
52786;SDS011;38661;53.152;5.846;2023-06-26T12:27:15;7.80;;;2.85;;
52786;SDS011;38661;53.152;5.846;2023-06-26T12:29:49;8.60;;;2.75;;
52786;SDS011;38661;53.152;5.846;2023-06-26T12:32:17;9.48;;;2.58;;
52786;SDS011;38661;53.152;5.846;2023-06-26T12:34:46;10.82;;;2.47;;
52786;SDS011;38661;53.152;5.846;2023-06-26T12:37:14;6.38;;;2.30;;
52786;SDS011;38661;53.152;5.846;2023-06-26T12:39:47;5.28;;;1.67;;
52786;SDS011;38661;53.152;5.846;2023-06-26T12:42:24;4.82;;;2.22;;
52786;SDS011;38661;53.152;5.846;2023-06-26T12:44:52;3.92;;;2.00;;
52786;SDS011;38661;53.152;5.846;2023-06-26T12:47:23;4.93;;;2.20;;
52786;SDS011;38661;53.152;5.846;2023-06-26T12:49:50;5.78;;;2.65;;
52786;SDS011;38661;53.152;5.846;2023-06-26T12:52:17;7.20;;;2.45;;
52786;SDS011;38661;53.152;5.846;2023-06-26T12:54:46;8.82;;;2.88;;
52786;SDS011;38661;53.152;5.846;2023-06-26T12:57:16;7.03;;;2.33;;
52786;SDS011;38661;53.152;5.846;2023-06-26T12:59:41;6.13;;;2.45;;
52786;SDS011;38661;53.152;5.846;2023-06-26T13:02:08;5.85;;;2.30;;
52786;SDS011;38661;53.152;5.846;2023-06-26T13:04:36;5.95;;;2.15;;
52786;SDS011;38661;53.152;5.846;2023-06-26T13:07:05;6.65;;;2.17;;
52786;SDS011;38661;53.152;5.846;2023-06-26T13:09:34;6.10;;;1.98;;
52786;SDS011;38661;53.152;5.846;2023-06-26T13:12:00;4.93;;;2.65;;
52786;SDS011;38661;53.152;5.846;2023-06-26T13:14:29;5.10;;;2.50;;
52786;SDS011;38661;53.152;5.846;2023-06-26T13:16:55;7.05;;;2.25;;
52786;SDS011;38661;53.152;5.846;2023-06-26T13:19:20;5.25;;;2.05;;
52786;SDS011;38661;53.152;5.846;2023-06-26T13:21:46;6.63;;;2.47;;
52786;SDS011;38661;53.152;5.846;2023-06-26T13:24:12;8.35;;;2.50;;
52786;SDS011;38661;53.152;5.846;2023-06-26T13:26:38;5.25;;;2.03;;
52786;SDS011;38661;53.152;5.846;2023-06-26T13:29:04;7.05;;;2.33;;
52786;SDS011;38661;53.152;5.846;2023-06-26T13:31:31;5.97;;;2.15;;
52786;SDS011;38661;53.152;5.846;2023-06-26T13:33:57;8.75;;;3.13;;
52786;SDS011;38661;53.152;5.846;2023-06-26T13:36:24;6.32;;;2.13;;
52786;SDS011;38661;53.152;5.846;2023-06-26T13:38:50;10.05;;;2.38;;
52786;SDS011;38661;53.152;5.846;2023-06-26T13:41:23;7.03;;;2.00;;
52786;SDS011;38661;53.152;5.846;2023-06-26T13:43:49;7.22;;;2.67;;
52786;SDS011;38661;53.152;5.846;2023-06-26T13:46:16;9.02;;;2.67;;
52786;SDS011;38661;53.152;5.846;2023-06-26T13:48:42;10.73;;;2.72;;
52786;SDS011;38661;53.152;5.846;2023-06-26T13:51:11;8.20;;;2.35;;
52786;SDS011;38661;53.152;5.846;2023-06-26T13:53:37;6.72;;;2.45;;
52786;SDS011;38661;53.152;5.846;2023-06-26T13:56:03;6.38;;;2.20;;
52786;SDS011;38661;53.152;5.846;2023-06-26T13:58:29;9.13;;;2.60;;
52786;SDS011;38661;53.152;5.846;2023-06-26T14:00:57;4.82;;;1.80;;
52786;SDS011;38661;53.152;5.846;2023-06-26T14:03:23;7.78;;;1.95;;
52786;SDS011;38661;53.152;5.846;2023-06-26T14:05:49;6.88;;;1.95;;
52786;SDS011;38661;53.152;5.846;2023-06-26T14:08:14;7.20;;;2.00;;
52786;SDS011;38661;53.152;5.846;2023-06-26T14:10:40;7.95;;;3.15;;
52786;SDS011;38661;53.152;5.846;2023-06-26T14:13:06;5.38;;;1.50;;
52786;SDS011;38661;53.152;5.846;2023-06-26T14:15:33;8.07;;;2.20;;
52786;SDS011;38661;53.152;5.846;2023-06-26T14:18:00;6.30;;;2.47;;
52786;SDS011;38661;53.152;5.846;2023-06-26T14:20:28;5.07;;;1.70;;
52786;SDS011;38661;53.152;5.846;2023-06-26T14:22:54;5.53;;;2.13;;
52786;SDS011;38661;53.152;5.846;2023-06-26T14:25:20;5.88;;;1.67;;
52786;SDS011;38661;53.152;5.846;2023-06-26T14:27:46;6.68;;;2.22;;
52786;SDS011;38661;53.152;5.846;2023-06-26T14:30:11;8.00;;;2.00;;
52786;SDS011;38661;53.152;5.846;2023-06-26T14:32:37;8.90;;;3.20;;
52786;SDS011;38661;53.152;5.846;2023-06-26T14:35:03;8.02;;;2.20;;
52786;SDS011;38661;53.152;5.846;2023-06-26T14:37:29;7.07;;;1.83;;
52786;SDS011;38661;53.152;5.846;2023-06-26T14:39:56;5.05;;;1.67;;
52786;SDS011;38661;53.152;5.846;2023-06-26T14:42:22;8.00;;;2.30;;
52786;SDS011;38661;53.152;5.846;2023-06-26T14:44:48;8.70;;;2.67;;
52786;SDS011;38661;53.152;5.846;2023-06-26T14:47:16;7.15;;;1.83;;
52786;SDS011;38661;53.152;5.846;2023-06-26T14:49:42;5.60;;;2.05;;